Time;durP1;ratioP1;P1;durP2;ratioP2;P2;SDS_P1;SDS_P2;PMS_P1;PMS_P2;Temp;Humidity;BMP_temperature;BMP_pressure;BME280_temperature;BME280_humidity;BME280_pressure;Samples;Min_cycle;Max_cycle;Signal;HPM_P1;HPM_P2
2022/05/24 00:02:07;;;;;;;8.40;5.30;;;8.30;99.90;;;;;;6188346;23;20197;-94
2022/05/24 00:05:17;;;;;;;;;;;;;;;;;;;;;
2022/05/24 00:08:04;;;;;;;;;;;;;;;;;;;;;
2022/05/24 00:11:07;;;;;;;9.77;5.40;;;8.20;99.90;;;;;;6188541;23;20683;-95
2022/05/24 00:13:49;;;;;;;;;;;;;;;;;;;;;
2022/05/24 00:16:52;;;;;;;;;;;;;;;;;;;;;
2022/05/24 00:19:36;;;;;;;;;;;;;;;;;;;;;
2022/05/24 00:22:02;;;;;;;6.90;4.47;;;;;;;;;;6188232;23;20647;-92
2022/05/24 00:25:02;;;;;;;;;;;;;;;;;;;;;
2022/05/24 00:27:34;;;;;;;;;;;;;;;;;;;;;
2022/05/24 00:30:01;;;;;;;8.07;5.00;;;;;;;;;;6166730;23;20264;-93
2022/05/24 00:32:43;;;;;;;11.57;5.57;;;7.90;99.90;;;;;;6187655;23;20160;-93
2022/05/24 00:35:30;;;;;;;8.53;4.77;;;7.90;99.90;;;;;;6187508;23;20222;-93
2022/05/24 00:37:56;;;;;;;7.73;4.97;;;;;;;;;;6187720;23;20164;-94
2022/05/24 00:40:41;;;;;;;;;;;;;;;;;;;;;
2022/05/24 00:44:04;;;;;;;8.40;4.30;;;7.80;99.90;;;;;;6188757;23;20612;-92
2022/05/24 00:47:01;;;;;;;;;;;;;;;;;;;;;
2022/05/24 00:49:58;;;;;;;9.50;5.17;;;7.80;99.90;;;;;;6134756;23;20235;-93
2022/05/24 00:53:02;;;;;;;6.73;3.90;;;7.70;99.90;;;;;;6186775;23;20222;-93
2022/05/24 01:06:14;;;;;;;;;;;;;;;;;;;;;
2022/05/24 01:09:01;;;;;;;5.37;3.30;;;7.70;99.90;;;;;;6069375;23;20283;-93
2022/05/24 01:15:50;;;;;;;;;;;;;;;;;;;;;
2022/05/24 01:19:04;;;;;;;;;;;;;;;;;;;;;
2022/05/24 01:29:17;;;;;;;;;;;;;;;;;;;;;
2022/05/24 01:38:21;;;;;;;6.50;4.57;;;7.30;99.90;;;;;;6146306;23;20604;-94
2022/05/24 01:44:33;;;;;;;4.87;4.00;;;7.20;99.90;;;;;;6039457;23;20163;-95
2022/05/24 01:47:48;;;;;;;;;;;;;;;;;;;;;
2022/05/24 01:50:30;;;;;;;6.23;3.80;;;7.20;99.90;;;;;;6188767;23;20263;-94
2022/05/24 01:54:28;;;;;;;;;;;;;;;;;;;;;
2022/05/24 02:00:08;;;;;;;;;;;;;;;;;;;;;
2022/05/24 02:03:04;;;;;;;;;;;;;;;;;;;;;
2022/05/24 02:08:30;;;;;;;6.77;3.53;;;7.10;99.90;;;;;;6202622;23;20172;-94
2022/05/24 02:11:58;;;;;;;6.13;4.17;;;7.20;99.90;;;;;;6184976;23;20247;-95
2022/05/24 02:18:10;;;;;;;;;;;;;;;;;;;;;
2022/05/24 02:21:33;;;;;;;;;;;;;;;;;;;;;
2022/05/24 02:31:35;;;;;;;;;;;;;;;;;;;;;
2022/05/24 02:34:39;;;;;;;;;;;;;;;;;;;;;
2022/05/24 02:38:10;;;;;;;;;;;;;;;;;;;;;
2022/05/24 02:45:00;;;;;;;;;;;;;;;;;;;;;
2022/05/24 02:51:44;;;;;;;;;;;;;;;;;;;;;
2022/05/24 02:54:37;;;;;;;5.17;3.67;;;7.10;99.90;;;;;;6201816;23;20168;-93
2022/05/24 03:01:18;;;;;;;;;;;;;;;;;;;;;
2022/05/24 03:11:09;;;;;;;;;;;;;;;;;;;;;
2022/05/24 03:16:36;;;;;;;5.43;3.63;;;7.30;99.90;;;;;;6220249;23;20166;-92
2022/05/24 03:19:39;;;;;;;4.17;3.20;;;7.30;99.90;;;;;;6195719;23;20163;-94
2022/05/24 03:22:07;;;;;;;4.47;3.13;;;;;;;;;;6179173;23;20623;-92
2022/05/24 03:34:20;;;;;;;4.60;3.00;;;7.60;99.90;;;;;;6107901;23;20651;-93
2022/05/24 03:36:52;;;;;;;4.93;3.53;;;7.50;99.90;;;;;;6111026;23;20180;-90
2022/05/24 03:39:23;;;;;;;3.87;3.20;;;;;;;;;;6104844;23;20169;-88
2022/05/24 03:41:52;;;;;;;3.13;2.83;;;;;;;;;;6131158;23;20169;-90
2022/05/24 03:44:42;;;;;;;;;;;;;;;;;;;;;
2022/05/24 03:47:40;;;;;;;3.87;2.90;;;7.80;99.90;;;;;;6157724;23;20655;-91
2022/05/24 03:54:08;;;;;;;;;;;;;;;;;;;;;
2022/05/24 04:03:01;;;;;;;4.87;3.30;;;8.50;99.90;;;;;;6157299;23;20157;-92
2022/05/24 04:05:33;;;;;;;5.03;3.97;;;8.60;99.90;;;;;;6113652;23;20162;-91
2022/05/24 04:08:36;;;;;;;3.40;2.57;;;8.80;99.90;;;;;;6131525;23;20157;-92
2022/05/24 04:14:56;;;;;;;6.47;3.57;;;9.00;99.90;;;;;;6090896;23;20635;-91
2022/05/24 04:18:00;;;;;;;;;;;;;;;;;;;;;
2022/05/24 04:20:56;;;;;;;;;;;;;;;;;;;;;
2022/05/24 04:27:05;;;;;;;4.50;3.13;;;;;;;;;;6089775;23;20204;-90
2022/05/24 04:30:30;;;;;;;;;;;;;;;;;;;;;
2022/05/24 04:33:47;;;;;;;;;;;;;;;;;;;;;
2022/05/24 04:49:44;;;;;;;3.53;2.75;;;11.00;99.90;;;;;;6042115;23;20198;-90
2022/05/24 04:52:42;;;;;;;;;;;;;;;;;;;;;
2022/05/24 04:55:20;;;;;;;3.23;2.70;;;11.20;99.90;;;;;;6039352;23;20686;-91
2022/05/24 05:01:34;;;;;;;3.38;2.75;;;11.70;99.90;;;;;;6188078;23;20212;-90
2022/05/24 05:04:20;;;;;;;2.90;2.55;;;11.90;99.90;;;;;;6161217;23;20164;-94
2022/05/24 05:06:58;;;;;;;3.45;2.70;;;12.10;99.90;;;;;;6161783;22;20160;-91
2022/05/24 05:09:34;;;;;;;4.50;3.17;;;12.30;99.90;;;;;;6188842;22;20205;-92
2022/05/24 05:12:06;;;;;;;4.82;3.45;;;12.60;99.90;;;;;;6188702;22;20141;-91
2022/05/24 05:14:35;;;;;;;5.78;2.58;;;12.60;99.90;;;;;;6188756;22;20140;-93
2022/05/24 05:17:08;;;;;;;2.67;2.17;;;;;;;;;;6164254;22;20143;-92
2022/05/24 05:19:42;;;;;;;3.58;2.70;;;13.20;99.90;;;;;;6188967;22;20161;-94
2022/05/24 05:22:33;;;;;;;3.17;2.13;;;13.40;99.90;;;;;;6188378;22;20171;-91
2022/05/24 05:28:07;;;;;;;2.55;2.20;;;13.90;99.90;;;;;;6168223;23;20232;-93
2022/05/24 05:33:21;;;;;;;2.42;2.22;;;;;;;;;;6183567;23;20136;-92
2022/05/24 05:36:29;;;;;;;;;;;;;;;;;;;;;
2022/05/24 05:39:00;;;;;;;2.17;1.52;;;14.60;99.90;;;;;;6173836;23;20537;-91
2022/05/24 05:41:35;;;;;;;1.77;1.67;;;14.70;99.90;;;;;;6145699;23;20153;-90
2022/05/24 05:44:09;;;;;;;4.63;1.65;;;14.80;99.90;;;;;;6141899;23;20168;-91
2022/05/24 05:46:41;;;;;;;1.50;1.40;;;14.90;99.90;;;;;;6112659;23;20169;-88
2022/05/24 05:49:12;;;;;;;1.90;1.70;;;15.10;99.90;;;;;;6107739;23;20157;-91
2022/05/24 05:51:46;;;;;;;2.65;2.28;;;15.20;99.90;;;;;;6131489;23;20193;-93
2022/05/24 05:54:15;;;;;;;2.35;2.08;;;;;;;;;;6107083;23;20188;-90
2022/05/24 05:56:41;;;;;;;2.10;1.42;;;;;;;;;;6157103;23;20154;-91
2022/05/24 05:59:10;;;;;;;2.15;1.63;;;;;;;;;;6133570;23;20161;-91
2022/05/24 06:01:38;;;;;;;1.90;1.70;;;;;;;;;;6134640;23;20161;-91
2022/05/24 06:04:05;;;;;;;1.77;1.63;;;;;;;;;;6133517;23;20181;-91
2022/05/24 06:06:36;;;;;;;6.68;1.83;;;15.90;99.90;;;;;;6130867;23;20185;-89
2022/05/24 06:09:03;;;;;;;1.70;1.60;;;;;;;;;;6132016;23;20145;-90
2022/05/24 06:11:31;;;;;;;2.00;1.80;;;;;;;;;;6131449;23;20193;-90
2022/05/24 06:14:04;;;;;;;2.00;1.70;;;16.10;99.90;;;;;;6131097;23;20165;-89
2022/05/24 06:16:30;;;;;;;1.77;1.50;;;;;;;;;;6137953;23;20197;-90
2022/05/24 06:18:57;;;;;;;1.65;1.55;;;;;;;;;;6130339;23;20162;-89
2022/05/24 06:21:23;;;;;;;1.63;1.40;;;;;;;;;;6131455;23;20157;-90
2022/05/24 06:23:49;;;;;;;2.60;1.60;;;;;;;;;;6134248;23;20161;-90
2022/05/24 06:26:28;;;;;;;;;;;;;;;;;;;;;
2022/05/24 06:29:10;;;;;;;2.38;1.60;;;16.60;99.90;;;;;;6195572;23;20164;-89
2022/05/24 06:31:42;;;;;;;5.38;1.63;;;;;;;;;;6166693;23;20199;-91
2022/05/24 06:34:15;;;;;;;1.52;1.20;;;16.70;99.90;;;;;;6186554;23;20152;-89
2022/05/24 06:36:53;;;;;;;;;;;;;;;;;;;;;
2022/05/24 06:39:20;;;;;;;1.27;1.17;;;;;;;;;;6186548;23;20246;-90
2022/05/24 06:41:51;;;;;;;1.85;1.45;;;16.60;99.90;;;;;;6189694;23;20165;-89
2022/05/24 06:44:21;;;;;;;1.98;1.33;;;16.90;99.90;;;;;;6197766;23;20160;-90
2022/05/24 06:47:08;;;;;;;;;;;;;;;;;;;;;
2022/05/24 06:49:44;;;;;;;1.52;1.25;;;16.90;99.90;;;;;;6198048;23;20508;-90
2022/05/24 06:52:18;;;;;;;1.75;1.27;;;17.00;99.90;;;;;;6175677;23;20198;-89
2022/05/24 06:54:54;;;;;;;1.38;1.27;;;17.00;99.90;;;;;;6203247;23;20162;-88
2022/05/24 06:57:25;;;;;;;1.88;1.40;;;17.10;99.90;;;;;;6203630;23;20156;-90
2022/05/24 07:02:42;;;;;;;1.38;1.27;;;18.40;99.90;;;;;;6201624;23;20167;-89
2022/05/24 07:05:13;;;;;;;1.42;1.30;;;17.30;99.90;;;;;;6196118;23;20161;-88
2022/05/24 07:07:53;;;;;;;2.20;1.17;;;17.40;99.90;;;;;;6196382;23;20167;-89
2022/05/24 07:10:20;;;;;;;1.20;1.10;;;;;;;;;;6197695;23;20188;-88
2022/05/24 07:12:45;;;;;;;1.50;1.40;;;17.50;99.90;;;;;;6199343;23;20188;-89
2022/05/24 07:15:12;;;;;;;1.77;1.30;;;17.70;99.90;;;;;;6185699;23;20203;-88
2022/05/24 07:17:38;;;;;;;1.70;1.60;;;;;;;;;;6183891;23;20234;-89
2022/05/24 07:20:08;;;;;;;2.15;1.42;;;17.70;99.90;;;;;;6184611;23;20210;-89
2022/05/24 07:22:55;;;;;;;1.65;1.25;;;18.00;99.90;;;;;;6159418;23;20519;-89
2022/05/24 07:25:25;;;;;;;1.27;1.17;;;17.90;99.90;;;;;;6166773;23;20164;-90
2022/05/24 07:27:55;;;;;;;2.38;1.10;;;17.90;99.90;;;;;;6184650;23;20168;-90
2022/05/24 07:30:23;;;;;;;1.13;1.02;;;17.90;99.90;;;;;;6135643;23;20257;-91
2022/05/24 07:32:50;;;;;;;1.50;1.40;;;;;;;;;;6160155;23;20164;-90
2022/05/24 07:35:16;;;;;;;2.38;1.90;;;18.00;99.90;;;;;;6184766;23;20607;-89
2022/05/24 07:38:07;;;;;;;1.35;1.20;;;18.20;99.90;;;;;;6191612;23;20184;-88
2022/05/24 07:46:40;;;;;;;1.67;1.40;;;18.40;98.40;;;;;;6192207;23;20171;-91
2022/05/24 07:49:09;;;;;;;1.88;1.35;;;18.50;99.10;;;;;;6190821;23;20161;-89
2022/05/24 07:51:45;;;;;;;;;;;;;;;;;;;;;
2022/05/24 07:54:21;;;;;;;2.22;1.52;;;18.80;99.60;;;;;;6193113;23;20157;-89
2022/05/24 07:56:47;;;;;;;1.67;1.33;;;18.90;97.90;;;;;;6163576;23;20167;-89
2022/05/24 07:59:13;;;;;;;1.80;1.40;;;;;;;;;;6187669;23;20578;-89
2022/05/24 08:01:40;;;;;;;2.28;1.05;;;;;;;;;;6186522;23;20169;-89
2022/05/24 08:04:22;;;;;;;1.38;1.27;;;18.90;93.50;;;;;;6190093;23;20258;-90
2022/05/24 08:06:51;;;;;;;1.48;1.38;;;18.20;95.00;;;;;;6188661;23;20157;-91
2022/05/24 08:09:17;;;;;;;2.40;1.42;;;;;;;;;;6187328;23;20156;-90
2022/05/24 08:11:53;;;;;;;;;;;;;;;;;;;;;
2022/05/24 08:14:19;;;;;;;1.92;1.27;;;18.80;95.40;;;;;;6187711;23;20220;-90
2022/05/24 08:16:49;;;;;;;1.77;1.52;;;19.10;90.80;;;;;;6187782;23;20168;-88
2022/05/24 08:19:15;;;;;;;1.30;1.15;;;;;;;;;;6161928;23;20467;-88
2022/05/24 08:21:41;;;;;;;1.73;1.20;;;;;;;;;;6187483;23;20187;-88
2022/05/24 08:24:08;;;;;;;2.75;1.60;;;19.30;89.70;;;;;;6190621;23;20183;-89
2022/05/24 08:26:39;;;;;;;1.35;1.17;;;19.50;93.80;;;;;;6192346;23;20184;-88
2022/05/24 08:29:10;;;;;;;2.67;1.45;;;19.50;92.90;;;;;;6189994;23;20156;-89
2022/05/24 08:31:38;;;;;;;1.42;1.15;;;19.40;86.10;;;;;;6162275;23;20211;-89
2022/05/24 08:34:07;;;;;;;1.25;1.15;;;23.00;93.00;;;;;;6187509;23;20144;-89
2022/05/24 08:36:37;;;;;;;1.85;1.60;;;19.60;89.40;;;;;;6162844;23;20161;-89
2022/05/24 08:39:06;;;;;;;1.95;1.35;;;19.90;82.80;;;;;;6189356;23;20231;-88
2022/05/24 08:41:40;;;;;;;1.30;1.05;;;;;;;;;;6191067;23;20199;-86
2022/05/24 08:50:23;;;;;;;2.05;1.42;;;20.50;82.40;;;;;;6206918;23;20699;-88
2022/05/24 08:53:15;;;;;;;2.13;1.42;;;20.00;80.20;;;;;;6207209;23;20152;-88
2022/05/24 08:56:09;;;;;;;1.50;1.15;;;20.00;82.40;;;;;;6202081;23;20152;-88
2022/05/24 08:59:09;;;;;;;1.85;1.02;;;20.20;79.70;;;;;;6194173;23;20160;-87
2022/05/24 09:01:35;;;;;;;1.27;1.05;;;;;;;;;;6192235;23;20163;-89
2022/05/24 09:04:16;;;;;;;1.45;1.20;;;20.30;75.40;;;;;;6187827;23;20148;-90
2022/05/24 09:07:00;;;;;;;1.90;1.42;;;20.40;75.10;;;;;;6186824;23;20157;-89
2022/05/24 09:09:28;;;;;;;1.60;1.10;;;;;;;;;;6187071;23;20164;-89
2022/05/24 09:12:29;;;;;;;1.73;1.23;;;20.60;72.20;;;;;;6186689;23;20168;-89
2022/05/24 09:15:21;;;;;;;1.88;1.10;;;20.60;73.70;;;;;;6161871;23;20184;-89
2022/05/24 09:18:20;;;;;;;1.23;1.13;;;20.60;74.70;;;;;;6188363;23;20152;-88
2022/05/24 09:20:50;;;;;;;1.27;1.17;;;20.80;74.30;;;;;;6192272;23;20179;-88
2022/05/24 09:23:26;;;;;;;1.55;1.20;;;20.80;73.30;;;;;;6187041;23;20664;-89
2022/05/24 09:26:18;;;;;;;1.52;1.38;;;20.90;73.70;;;;;;6186185;23;20195;-89
2022/05/24 09:28:55;;;;;;;1.50;1.30;;;20.90;74.30;;;;;;6187985;23;20144;-89
2022/05/24 09:31:40;;;;;;;1.38;1.27;;;21.20;74.00;;;;;;6195235;23;20176;-89
2022/05/24 09:34:30;;;;;;;1.33;1.17;;;20.50;75.90;;;;;;6195893;23;20214;-90
2022/05/24 09:36:56;;;;;;;1.30;1.20;;;;;;;;;;6170672;23;20217;-90
2022/05/24 09:39:41;;;;;;;2.33;1.08;;;20.40;75.10;;;;;;6198493;23;20175;-91
2022/05/24 09:42:08;;;;;;;5.05;1.52;;;;;;;;;;6198126;23;20160;-90
2022/05/24 09:45:21;;;;;;;;;;;;;;;;;;;;;
2022/05/24 09:48:39;;;;;;;1.15;0.90;;;21.00;75.80;;;;;;6195207;23;20156;-89
2022/05/24 09:51:26;;;;;;;2.35;1.60;;;21.00;75.40;;;;;;6156593;23;20188;-90
2022/05/24 09:53:54;;;;;;;1.48;1.25;;;21.10;75.60;;;;;;6195650;23;20148;-91
2022/05/24 09:56:34;;;;;;;2.03;1.27;;;21.20;74.70;;;;;;6198406;23;20162;-89
2022/05/24 09:59:05;;;;;;;1.90;1.30;;;21.30;76.80;;;;;;6203185;23;20156;-89
2022/05/24 10:01:35;;;;;;;1.48;1.35;;;21.50;74.30;;;;;;6194966;23;20159;-87
2022/05/24 10:04:17;;;;;;;1.67;1.20;;;21.40;74.70;;;;;;6188048;23;20241;-88
2022/05/24 10:06:53;;;;;;;1.30;1.20;;;21.20;72.90;;;;;;6185600;23;20470;-88
2022/05/24 10:09:18;;;;;;;1.30;1.00;;;21.20;74.70;;;;;;6187261;23;20227;-88
2022/05/24 10:11:54;;;;;;;1.75;1.65;;;21.60;72.20;;;;;;6185734;23;20188;-89
2022/05/24 10:14:50;;;;;;;1.70;1.13;;;21.60;67.40;;;;;;6185761;23;20155;-89
2022/05/24 10:17:55;;;;;;;1.50;1.40;;;21.50;68.90;;;;;;6190147;23;20163;-90
2022/05/24 10:20:21;;;;;;;1.80;1.42;;;;;;;;;;6186113;23;20171;-89
2022/05/24 10:23:30;;;;;;;1.70;1.42;;;21.90;66.90;;;;;;6186614;23;20206;-88
2022/05/24 10:26:41;;;;;;;1.38;1.27;;;22.00;67.40;;;;;;6174839;23;20191;-90
2022/05/24 10:29:19;;;;;;;2.17;1.27;;;21.60;66.20;;;;;;6101441;23;20254;-88
2022/05/24 10:32:08;;;;;;;1.25;1.15;;;21.60;66.60;;;;;;6186557;23;20184;-89
2022/05/24 10:41:14;;;;;;;2.63;1.35;;;22.40;67.50;;;;;;6196113;23;20156;-88
2022/05/24 10:44:01;;;;;;;4.95;2.80;;;22.20;66.60;;;;;;6197735;23;20163;-88
2022/05/24 10:47:08;;;;;;;2.10;1.75;;;22.20;69.00;;;;;;6199026;23;20180;-88
2022/05/24 10:49:47;;;;;;;1.35;1.17;;;22.40;64.80;;;;;;6201190;23;20148;-89
2022/05/24 10:52:17;;;;;;;1.48;1.17;;;22.80;66.00;;;;;;6203879;23;20148;-89
2022/05/24 10:54:57;;;;;;;2.05;1.83;;;22.70;63.90;;;;;;6207157;23;20164;-91
2022/05/24 10:57:50;;;;;;;2.88;1.10;;;22.80;64.40;;;;;;6194949;23;20133;-88
2022/05/24 11:00:23;;;;;;;2.60;1.75;;;21.00;63.60;;;;;;6189188;23;20191;-88
2022/05/24 11:03:19;;;;;;;;;;;;;;;;;;;;;
2022/05/24 11:05:45;;;;;;;1.95;1.48;;;;;;;;;;6193418;23;20575;-89
2022/05/24 11:08:46;;;;;;;1.25;1.15;;;22.50;63.30;;;;;;6189363;23;20216;-90
2022/05/24 11:11:34;;;;;;;5.35;1.65;;;22.40;64.70;;;;;;6188776;23;20182;-86
2022/05/24 11:14:38;;;;;;;2.17;1.60;;;22.40;65.90;;;;;;6189631;23;20160;-88
2022/05/24 11:17:05;;;;;;;4.15;1.38;;;22.40;63.80;;;;;;6196254;23;20171;-88
2022/05/24 11:19:36;;;;;;;1.67;1.58;;;22.40;65.00;;;;;;6187395;23;20145;-91
2022/05/24 11:22:17;;;;;;;1.67;1.38;;;22.30;64.20;;;;;;6211870;23;20132;-90
2022/05/24 11:24:52;;;;;;;2.38;1.45;;;22.30;64.00;;;;;;6212135;23;20137;-90
2022/05/24 11:27:31;;;;;;;1.38;1.27;;;22.20;65.00;;;;;;6211802;23;20188;-91
2022/05/24 11:30:07;;;;;;;2.60;1.73;;;21.90;61.90;;;;;;6212360;23;20160;-89
2022/05/24 11:32:49;;;;;;;4.18;1.30;;;22.70;66.50;;;;;;6211632;23;20153;-90
2022/05/24 11:35:18;;;;;;;3.65;1.50;;;22.30;62.50;;;;;;6212166;23;20200;-89
2022/05/24 11:37:47;;;;;;;1.63;1.52;;;22.30;63.10;;;;;;6213216;23;20180;-90
2022/05/24 11:40:42;;;;;;;2.50;1.48;;;23.40;67.00;;;;;;6213173;23;20161;-87
2022/05/24 11:43:43;;;;;;;1.40;1.30;;;22.20;63.80;;;;;;6213793;23;20191;-90
2022/05/24 11:46:35;;;;;;;2.00;1.30;;;19.40;62.40;;;;;;6194108;23;20215;-91
2022/05/24 11:49:06;;;;;;;2.88;1.52;;;22.80;68.90;;;;;;6191927;23;20195;-86
2022/05/24 11:51:42;;;;;;;1.25;1.15;;;22.20;66.90;;;;;;6189702;23;20199;-91
2022/05/24 11:54:43;;;;;;;1.88;1.58;;;22.40;65.10;;;;;;6185616;23;20167;-93
2022/05/24 11:59:59;;;;;;;1.27;1.17;;;22.70;63.60;;;;;;6189611;23;20156;-89
2022/05/24 12:02:36;;;;;;;;;;;;;;;;;;;;;
2022/05/24 12:08:52;;;;;;;1.45;1.02;;;22.80;65.10;;;;;;6192939;23;20236;-90
2022/05/24 12:11:40;;;;;;;1.33;1.08;;;22.80;62.20;;;;;;6192787;23;20188;-90
2022/05/24 12:14:38;;;;;;;1.45;1.20;;;23.00;64.90;;;;;;6190389;23;20157;-90
2022/05/24 12:17:14;;;;;;;1.85;1.50;;;22.80;72.50;;;;;;6194374;23;20218;-88
2022/05/24 12:19:57;;;;;;;1.23;1.13;;;22.70;63.30;;;;;;6187356;23;20164;-89
2022/05/24 12:22:54;;;;;;;1.52;1.40;;;22.80;61.20;;;;;;6187436;23;20218;-91
2022/05/24 12:25:54;;;;;;;1.77;1.42;;;22.70;61.30;;;;;;6185951;23;20165;-89
2022/05/24 12:28:50;;;;;;;;;;;;;;;;;;;;;
2022/05/24 12:31:22;;;;;;;1.15;1.05;;;22.90;65.80;;;;;;6189293;23;20271;-88
2022/05/24 12:34:27;;;;;;;;;;;;;;;;;;;;;
2022/05/24 12:37:19;;;;;;;1.75;1.45;;;22.60;66.40;;;;;;6171282;23;20260;-90
2022/05/24 12:40:43;;;;;;;1.30;1.20;;;22.30;61.40;;;;;;6172623;23;20169;-89
2022/05/24 12:43:13;;;;;;;1.05;1.05;;;22.30;62.70;;;;;;6186344;23;20192;-91
2022/05/24 12:49:23;;;;;;;1.30;1.13;;;22.50;64.30;;;;;;6174605;23;20160;-92
2022/05/24 12:52:09;;;;;;;1.63;1.30;;;22.60;63.10;;;;;;6183565;23;20631;-92
2022/05/24 12:55:23;;;;;;;;;;;;;;;;;;;;;
2022/05/24 12:57:50;;;;;;;2.28;1.35;;;;;;;;;;6159895;23;20164;-91
2022/05/24 13:00:50;;;;;;;;;;;;;;;;;;;;;
2022/05/24 13:03:28;;;;;;;1.85;1.33;;;22.10;61.00;;;;;;6203766;23;20153;-92
2022/05/24 13:05:59;;;;;;;1.70;1.27;;;22.00;62.60;;;;;;6165108;23;20592;-90
2022/05/24 13:08:25;;;;;;;1.40;1.30;;;;;;;;;;6187533;23;20218;-91
2022/05/24 13:11:42;;;;;;;;;;;;;;;;;;;;;
2022/05/24 13:20:14;;;;;;;;;;;;;;;;;;;;;
2022/05/24 13:23:19;;;;;;;;;;;;;;;;;;;;;
2022/05/24 13:26:20;;;;;;;4.03;1.55;;;21.90;63.00;;;;;;6191285;23;20231;-90
2022/05/24 13:28:56;;;;;;;2.97;1.30;;;22.50;63.90;;;;;;6186001;23;20239;-89
2022/05/24 13:35:02;;;;;;;;;;;;;;;;;;;;;
2022/05/24 13:38:08;;;;;;;1.75;1.30;;;20.10;64.40;;;;;;6188826;23;20559;-87
2022/05/24 13:40:57;;;;;;;1.65;1.45;;;19.20;60.30;;;;;;6192668;23;20191;-90
2022/05/24 13:43:47;;;;;;;1.95;1.60;;;21.80;65.80;;;;;;6201423;23;20157;-89
2022/05/24 13:46:21;;;;;;;1.60;1.50;;;19.30;61.70;;;;;;6194129;23;20467;-92
2022/05/24 13:49:30;;;;;;;1.77;1.40;;;22.30;66.70;;;;;;6187449;23;20251;-91
2022/05/24 13:52:25;;;;;;;1.98;1.40;;;22.10;66.30;;;;;;6183246;23;20281;-90
2022/05/24 13:55:18;;;;;;;1.80;1.40;;;21.80;63.70;;;;;;6191649;23;20161;-91
2022/05/24 13:58:11;;;;;;;2.97;1.40;;;21.80;63.50;;;;;;6185380;23;20503;-90
2022/05/24 14:00:47;;;;;;;;;;;;;;;;;;;;;
2022/05/24 14:03:27;;;;;;;2.63;1.63;;;21.70;62.50;;;;;;6196718;23;20168;-90
2022/05/24 14:06:21;;;;;;;;;;;;;;;;;;;;;
2022/05/24 14:08:53;;;;;;;1.90;1.30;;;21.70;62.40;;;;;;6186350;23;20221;-89
2022/05/24 14:11:54;;;;;;;1.95;1.80;;;21.70;65.80;;;;;;6187065;23;20246;-90
2022/05/24 14:14:28;;;;;;;1.95;1.33;;;21.80;63.40;;;;;;6182891;23;20554;-91
2022/05/24 14:17:21;;;;;;;;;;;;;;;;;;;;;
2022/05/24 14:19:52;;;;;;;1.83;1.45;;;21.70;63.50;;;;;;6191966;23;20176;-91
2022/05/24 14:22:47;;;;;;;2.05;1.23;;;21.70;63.00;;;;;;6163272;23;20168;-90
2022/05/24 14:25:24;;;;;;;1.30;1.20;;;22.00;67.30;;;;;;6196202;23;20156;-93
2022/05/24 14:28:02;;;;;;;2.03;1.30;;;21.60;66.90;;;;;;6190892;23;20204;-89
2022/05/24 14:30:46;;;;;;;1.60;1.50;;;21.70;62.40;;;;;;6187776;23;20195;-92
2022/05/24 14:33:21;;;;;;;1.77;1.50;;;21.20;63.70;;;;;;6188443;23;20239;-93
2022/05/24 14:36:07;;;;;;;4.05;1.25;;;21.60;62.20;;;;;;6189034;23;20162;-94
2022/05/24 14:39:06;;;;;;;;;;;;;;;;;;;;;
2022/05/24 14:41:38;;;;;;;1.77;1.35;;;21.60;63.30;;;;;;6187870;23;20239;-93
2022/05/24 14:45:27;;;;;;;1.70;1.30;;;21.40;62.60;;;;;;6190664;23;20542;-94
2022/05/24 14:47:41;;;;;;;1.67;1.27;;;21.70;63.80;;;;;;6177046;23;20167;-92
2022/05/24 14:50:48;;;;;;;1.30;1.20;;;21.30;64.10;;;;;;6171786;23;20192;-93
2022/05/24 14:53:41;;;;;;;1.30;1.20;;;21.20;63.50;;;;;;6187578;23;20161;-91
2022/05/24 14:56:12;;;;;;;4.97;1.05;;;21.20;63.50;;;;;;6186606;23;20168;-90
2022/05/24 14:58:38;;;;;;;1.95;1.48;;;;;;;;;;6186252;23;20160;-91
2022/05/24 15:01:20;;;;;;;3.08;1.42;;;21.10;65.80;;;;;;6162216;23;20475;-93
2022/05/24 15:03:46;;;;;;;1.40;1.30;;;;;;;;;;6167043;23;20560;-92
2022/05/24 15:06:20;;;;;;;3.42;2.28;;;21.10;67.70;;;;;;6186560;23;20216;-90
2022/05/24 15:17:41;;;;;;;2.53;1.40;;;20.80;68.60;;;;;;6191295;23;20148;-91
2022/05/24 15:20:18;;;;;;;2.80;1.55;;;21.00;72.90;;;;;;6189513;23;20160;-90
2022/05/24 15:23:18;;;;;;;1.58;1.27;;;20.60;70.70;;;;;;6190379;23;20156;-92
2022/05/24 15:29:04;;;;;;;;;;;;;;;;;;;;;
2022/05/24 15:32:22;;;;;;;1.48;1.38;;;20.60;73.20;;;;;;6197588;23;20204;-93
2022/05/24 15:35:13;;;;;;;1.85;1.23;;;20.40;74.20;;;;;;6203071;23;20167;-92
2022/05/24 15:37:41;;;;;;;2.03;1.35;;;;;;;;;;6210144;23;20171;-92
2022/05/24 15:40:39;;;;;;;1.55;1.42;;;20.60;73.90;;;;;;6209422;23;20161;-91
2022/05/24 15:49:53;;;;;;;2.90;2.08;;;20.60;74.60;;;;;;6196166;23;20171;-92
2022/05/24 15:53:04;;;;;;;;;;;;;;;;;;;;;
2022/05/24 15:55:46;;;;;;;2.38;1.83;;;20.60;75.70;;;;;;6202623;23;20136;-93
2022/05/24 16:01:55;;;;;;;2.22;1.50;;;20.60;76.40;;;;;;6172052;23;20243;-91
2022/05/24 16:10:26;;;;;;;1.85;1.48;;;19.40;80.60;;;;;;6171383;23;20211;-91
2022/05/24 16:13:14;;;;;;;;;;;;;;;;;;;;;
2022/05/24 16:15:56;;;;;;;1.42;1.30;;;20.50;76.10;;;;;;6189568;23;20239;-91
2022/05/24 16:18:25;;;;;;;1.67;1.20;;;;;;;;;;6186601;23;20152;-90
2022/05/24 16:21:16;;;;;;;3.17;1.42;;;20.40;76.10;;;;;;6194499;23;20175;-92
2022/05/24 16:23:42;;;;;;;1.50;1.40;;;;;;;;;;6189553;23;20156;-90
2022/05/24 16:26:28;;;;;;;1.30;1.20;;;21.10;77.30;;;;;;6192703;23;20207;-91
2022/05/24 16:28:58;;;;;;;1.35;1.25;;;20.70;80.70;;;;;;6167318;23;20215;-90
2022/05/24 16:31:24;;;;;;;3.40;2.17;;;;;;;;;;6189850;23;20188;-91
2022/05/24 16:33:56;;;;;;;1.55;1.20;;;;;;;;;;6190126;23;20219;-93
2022/05/24 16:36:42;;;;;;;1.92;1.45;;;20.10;77.00;;;;;;6190681;23;20160;-90
2022/05/24 16:39:17;;;;;;;1.35;1.25;;;19.00;76.50;;;;;;6191103;23;20159;-89
2022/05/24 16:41:48;;;;;;;1.67;1.52;;;20.10;77.10;;;;;;6187269;23;20162;-91
2022/05/24 16:44:14;;;;;;;1.67;1.25;;;20.50;86.30;;;;;;6192991;23;20160;-91
2022/05/24 16:46:42;;;;;;;2.58;1.17;;;20.00;78.00;;;;;;6191485;23;20569;-90
2022/05/24 16:49:37;;;;;;;1.83;1.65;;;20.00;77.90;;;;;;6161671;23;20524;-92
2022/05/24 16:52:07;;;;;;;1.92;1.38;;;20.40;82.70;;;;;;6166788;23;20509;-89
2022/05/24 17:03:16;;;;;;;2.35;1.50;;;19.90;81.80;;;;;;6188943;23;20295;-94
2022/05/24 17:05:53;;;;;;;2.88;1.75;;;19.70;80.00;;;;;;6189795;23;20486;-92
2022/05/24 17:08:21;;;;;;;2.70;2.10;;;20.00;85.00;;;;;;6166563;23;20160;-91
2022/05/24 17:11:21;;;;;;;;;;;;;;;;;;;;;
2022/05/24 17:13:54;;;;;;;1.95;1.45;;;19.70;81.00;;;;;;6195688;23;20163;-93
2022/05/24 17:20:08;;;;;;;1.52;1.42;;;19.80;83.80;;;;;;6214077;23;20156;-92
2022/05/24 17:22:40;;;;;;;1.67;1.30;;;19.40;84.20;;;;;;6213227;23;20140;-93
2022/05/24 17:25:16;;;;;;;1.58;1.30;;;19.00;84.50;;;;;;6213116;23;20144;-93
2022/05/24 17:27:45;;;;;;;2.10;1.85;;;;;;;;;;6200549;23;20209;-92
2022/05/24 17:30:15;;;;;;;1.67;1.58;;;19.40;85.60;;;;;;6158976;23;20167;-92
2022/05/24 17:33:02;;;;;;;1.75;1.50;;;19.40;88.20;;;;;;6159608;23;20132;-93
2022/05/24 17:35:35;;;;;;;2.08;1.83;;;;;;;;;;6157284;23;20149;-93
2022/05/24 17:38:13;;;;;;;2.50;2.10;;;19.30;86.00;;;;;;6157824;23;20156;-91
2022/05/24 17:41:09;;;;;;;4.43;1.90;;;19.30;86.10;;;;;;6157741;23;20186;-92
2022/05/24 17:47:01;;;;;;;1.75;1.65;;;19.00;87.10;;;;;;6214759;22;20221;-87
2022/05/24 17:53:03;;;;;;;2.40;1.77;;;;;;;;;;6085711;23;20174;-91
2022/05/24 17:55:39;;;;;;;;;;;;;;;;;;;;;
2022/05/24 17:58:13;;;;;;;2.78;2.30;;;19.20;91.60;;;;;;6220282;23;20179;-92
2022/05/24 18:00:57;;;;;;;2.88;1.75;;;;;;;;;;6172342;23;20167;-90
2022/05/24 18:03:36;;;;;;;4.22;2.20;;;19.00;91.10;;;;;;6193649;23;20191;-89
2022/05/24 18:06:05;;;;;;;3.45;2.10;;;19.00;91.60;;;;;;6168281;23;20524;-89
2022/05/24 18:08:32;;;;;;;3.78;2.20;;;18.90;95.10;;;;;;6164965;23;20483;-89
2022/05/24 18:11:03;;;;;;;3.63;2.65;;;18.90;93.40;;;;;;6189605;23;20183;-89
2022/05/24 18:13:31;;;;;;;14.15;6.00;;;;;;;;;;6191098;23;20164;-88
2022/05/24 18:16:11;;;;;;;5.00;3.67;;;18.80;95.90;;;;;;6191354;23;20210;-88
2022/05/24 18:19:07;;;;;;;;;;;;;;;;;;;;;
2022/05/24 18:21:39;;;;;;;3.95;2.70;;;18.70;98.10;;;;;;6215358;23;20244;-90
2022/05/24 18:24:14;;;;;;;3.75;2.33;;;18.70;99.10;;;;;;6188646;23;20160;-90
2022/05/24 18:33:09;;;;;;;4.20;2.65;;;18.60;99.90;;;;;;6195454;23;20230;-90
2022/05/24 18:36:17;;;;;;;5.75;3.17;;;18.40;99.90;;;;;;6189558;23;20213;-91
2022/05/24 18:38:46;;;;;;;6.60;2.92;;;18.30;99.90;;;;;;6188059;23;20239;-88
2022/05/24 18:41:15;;;;;;;5.97;2.72;;;18.30;99.90;;;;;;6187607;23;20167;-89
2022/05/24 18:43:44;;;;;;;3.70;2.60;;;18.50;99.90;;;;;;6191554;23;20617;-90
2022/05/24 18:46:31;;;;;;;4.70;2.58;;;18.30;99.90;;;;;;6167592;23;20196;-90
2022/05/24 18:48:58;;;;;;;4.97;2.90;;;18.30;99.90;;;;;;6187588;23;20183;-89
2022/05/24 18:51:30;;;;;;;4.78;2.72;;;18.60;99.90;;;;;;6160614;23;20188;-89
2022/05/24 18:54:35;;;;;;;;;;;;;;;;;;;;;
2022/05/24 18:57:47;;;;;;;;;;;;;;;;;;;;;
2022/05/24 19:00:26;;;;;;;6.57;3.45;;;18.60;99.90;;;;;;6167189;23;20243;-89
2022/05/24 19:03:17;;;;;;;8.23;3.60;;;18.80;99.90;;;;;;6186284;23;20141;-89
2022/05/24 19:05:49;;;;;;;7.80;3.97;;;18.20;99.90;;;;;;6184400;23;20211;-89
2022/05/24 19:08:26;;;;;;;5.95;3.63;;;;;;;;;;6160234;23;20153;-89
2022/05/24 19:11:01;;;;;;;5.93;3.10;;;;;;;;;;6162241;23;20220;-89
2022/05/24 19:13:41;;;;;;;;;;;;;;;;;;;;;
2022/05/24 19:16:11;;;;;;;12.55;6.05;;;18.00;99.90;;;;;;6188732;23;20249;-91